AIB245 KPWM-KMIA
Flight info
| Callsign | AIB245 |
|---|---|
| Flight time | 3h 35m |
| Altitude | 34000 |
| Route | NUBLE4 CCC Q97 KALDA Q101 TUGGR/N0457F360 Q101 SKARP Y313 HOAGG BNFSH3 |
| Aircraft | A320/M-SDE3FGHIRWY/LB1 |
Departure
| Time | 2026-05-03 21:20 |
|---|---|
| Airport | Portland International Jetport (KPWM) |
Arrival
| Time | 2026-05-04 00:56 |
|---|---|
| Airport | Miami International Airport (KMIA) |
| Time | Latitude | Longitude | Altitude | Speed | Heading |
|---|---|---|---|---|---|
| 2026-05-03 20:24 | 43.64728 | -70.31304 | 66 ft | 0 kts | 31° |
| 2026-05-03 21:09 | 43.64726 | -70.31306 | 65 ft | 1 kts | 31° |
| 2026-05-03 21:09 | 43.64719 | -70.31312 | 57 ft | 1 kts | 37° |
| 2026-05-03 21:09 | 43.64709 | -70.31323 | 56 ft | 2 kts | 40° |
| 2026-05-03 21:09 | 43.64699 | -70.31335 | 61 ft | 2 kts | 40° |
| 2026-05-03 21:10 | 43.64691 | -70.31344 | 56 ft | 2 kts | 40° |
| 2026-05-03 21:10 | 43.64679 | -70.31357 | 56 ft | 2 kts | 39° |
| 2026-05-03 21:10 | 43.64667 | -70.31371 | 56 ft | 2 kts | 39° |
| 2026-05-03 21:10 | 43.64656 | -70.31384 | 60 ft | 2 kts | 45° |
| 2026-05-03 21:11 | 43.64651 | -70.31391 | 57 ft | 0 kts | 53° |
| 2026-05-03 21:11 | 43.64650 | -70.31394 | 57 ft | 1 kts | 58° |
| 2026-05-03 21:11 | 43.64647 | -70.31399 | 57 ft | 1 kts | 68° |
| 2026-05-03 21:11 | 43.64641 | -70.31423 | 56 ft | 5 kts | 74° |
| 2026-05-03 21:12 | 43.64639 | -70.31426 | 56 ft | 2 kts | 85° |
| 2026-05-03 21:12 | 43.64639 | -70.31421 | 56 ft | 0 kts | 92° |
| 2026-05-03 21:15 | 43.64639 | -70.31414 | 56 ft | 2 kts | 93° |
| 2026-05-03 21:15 | 43.64636 | -70.31371 | 56 ft | 8 kts | 97° |
| 2026-05-03 21:15 | 43.64616 | -70.31254 | 57 ft | 16 kts | 105° |
| 2026-05-03 21:16 | 43.64595 | -70.31081 | 61 ft | 20 kts | 95° |
| 2026-05-03 21:16 | 43.64582 | -70.30876 | 58 ft | 23 kts | 95° |
| 2026-05-03 21:16 | 43.64567 | -70.30650 | 57 ft | 24 kts | 96° |
| 2026-05-03 21:16 | 43.64550 | -70.30416 | 51 ft | 25 kts | 96° |
| 2026-05-03 21:17 | 43.64531 | -70.30172 | 54 ft | 21 kts | 95° |
| 2026-05-03 21:17 | 43.64521 | -70.29985 | 53 ft | 0 kts | 93° |
| 2026-05-03 21:17 | 43.64519 | -70.29962 | 52 ft | 6 kts | 103° |
| 2026-05-03 21:18 | 43.64462 | -70.29914 | 50 ft | 13 kts | 179° |
| 2026-05-03 21:18 | 43.64410 | -70.30003 | 49 ft | 13 kts | 264° |
| 2026-05-03 21:18 | 43.64406 | -70.30083 | 49 ft | 7 kts | 301° |
| 2026-05-03 21:18 | 43.64420 | -70.30139 | 52 ft | 6 kts | 277° |
| 2026-05-03 21:19 | 43.64421 | -70.30149 | 52 ft | 0 kts | 275° |
| 2026-05-03 21:19 | 43.64422 | -70.30169 | 51 ft | 17 kts | 275° |
| 2026-05-03 21:19 | 43.64459 | -70.30672 | 57 ft | 88 kts | 275° |
| 2026-05-03 21:19 | 43.64542 | -70.31781 | 74 ft | 142 kts | 277° |
| 2026-05-03 21:20 | 43.64637 | -70.33241 | 411 ft | 161 kts | 277° |
| 2026-05-03 21:20 | 43.64668 | -70.34904 | 872 ft | 183 kts | 275° |
| 2026-05-03 21:20 | 43.64767 | -70.36717 | 1421 ft | 199 kts | 279° |
| 2026-05-03 21:20 | 43.64901 | -70.38704 | 2048 ft | 210 kts | 279° |
| 2026-05-03 21:21 | 43.65043 | -70.40779 | 2606 ft | 226 kts | 279° |
| 2026-05-03 21:21 | 43.65199 | -70.43044 | 3027 ft | 254 kts | 279° |
| 2026-05-03 21:21 | 43.65375 | -70.45656 | 3010 ft | 294 kts | 276° |
| 2026-05-03 21:21 | 43.65067 | -70.48644 | 3010 ft | 336 kts | 254° |
| 2026-05-03 21:22 | 43.63851 | -70.51573 | 3015 ft | 374 kts | 233° |
| 2026-05-03 21:22 | 43.61891 | -70.54109 | 3643 ft | 381 kts | 224° |
| 2026-05-03 21:22 | 43.59885 | -70.56450 | 4877 ft | 377 kts | 224° |
| 2026-05-03 21:22 | 43.57889 | -70.58770 | 5864 ft | 377 kts | 224° |
| 2026-05-03 21:23 | 43.55870 | -70.61113 | 6649 ft | 381 kts | 224° |
| 2026-05-03 21:23 | 43.53833 | -70.63472 | 7456 ft | 384 kts | 223° |
| 2026-05-03 21:23 | 43.51777 | -70.65848 | 8297 ft | 386 kts | 223° |
| 2026-05-03 21:23 | 43.49680 | -70.68137 | 9085 ft | 392 kts | 215° |
| 2026-05-03 21:24 | 43.47181 | -70.69700 | 9888 ft | 401 kts | 198° |
| 2026-05-03 21:24 | 43.44397 | -70.70227 | 10638 ft | 409 kts | 181° |
| 2026-05-03 21:24 | 43.41564 | -70.69655 | 11404 ft | 416 kts | 165° |
| 2026-05-03 21:24 | 43.38836 | -70.68151 | 11941 ft | 427 kts | 156° |
| 2026-05-03 21:25 | 43.36036 | -70.66657 | 12327 ft | 438 kts | 166° |
| 2026-05-03 21:25 | 43.32969 | -70.65915 | 12365 ft | 452 kts | 175° |
| 2026-05-03 21:25 | 43.29876 | -70.65470 | 13467 ft | 447 kts | 180° |
| 2026-05-03 21:25 | 43.26744 | -70.65744 | 13714 ft | 457 kts | 194° |
| 2026-05-03 21:26 | 43.23692 | -70.66993 | 14099 ft | 462 kts | 202° |
| 2026-05-03 21:26 | 43.20863 | -70.68456 | 15205 ft | 447 kts | 204° |
| 2026-05-03 21:26 | 43.17861 | -70.70027 | 16288 ft | 445 kts | 204° |
| 2026-05-03 21:26 | 43.14959 | -70.71535 | 17046 ft | 447 kts | 204° |
| 2026-05-03 21:27 | 43.12035 | -70.73053 | 17728 ft | 451 kts | 205° |
| 2026-05-03 21:27 | 43.09262 | -70.75025 | 18311 ft | 449 kts | 217° |
| 2026-05-03 21:27 | 43.06725 | -70.77519 | 18927 ft | 450 kts | 220° |
| 2026-05-03 21:27 | 43.04174 | -70.79978 | 19529 ft | 454 kts | 217° |
| 2026-05-03 21:28 | 43.01480 | -70.82291 | 20117 ft | 459 kts | 214° |
| 2026-05-03 21:28 | 42.98692 | -70.84460 | 20692 ft | 463 kts | 212° |
| 2026-05-03 21:28 | 42.95841 | -70.86553 | 21243 ft | 466 kts | 211° |
| 2026-05-03 21:28 | 42.92960 | -70.88615 | 21767 ft | 469 kts | 211° |
| 2026-05-03 21:29 | 42.90091 | -70.90651 | 22280 ft | 472 kts | 211° |
| 2026-05-03 21:29 | 42.87171 | -70.92723 | 22608 ft | 478 kts | 211° |
| 2026-05-03 21:29 | 42.84169 | -70.94832 | 22612 ft | 490 kts | 209° |
| 2026-05-03 21:29 | 42.80988 | -70.96662 | 22690 ft | 497 kts | 204° |
| 2026-05-03 21:30 | 42.77766 | -70.98265 | 23450 ft | 491 kts | 201° |
| 2026-05-03 21:30 | 42.74518 | -70.99656 | 23917 ft | 489 kts | 201° |
| 2026-05-03 21:30 | 42.71244 | -71.01037 | 24116 ft | 490 kts | 201° |
| 2026-05-03 21:30 | 42.67984 | -71.02405 | 24439 ft | 490 kts | 201° |
| 2026-05-03 21:31 | 42.64732 | -71.03765 | 24753 ft | 490 kts | 201° |
| 2026-05-03 21:31 | 42.61513 | -71.05108 | 25031 ft | 489 kts | 201° |
| 2026-05-03 21:31 | 42.58274 | -71.06454 | 25284 ft | 488 kts | 201° |
| 2026-05-03 21:31 | 42.56143 | -71.07338 | 25413 ft | 487 kts | 201° |
| 2026-05-03 21:32 | 42.53726 | -71.08307 | 25574 ft | 470 kts | 199° |
| 2026-05-03 21:32 | 42.50641 | -71.09464 | 25626 ft | 457 kts | 201° |
| 2026-05-03 21:32 | 42.47717 | -71.11105 | 25544 ft | 448 kts | 210° |
| 2026-05-03 21:33 | 42.44950 | -71.13034 | 25439 ft | 445 kts | 211° |
| 2026-05-03 21:33 | 42.42248 | -71.15089 | 25146 ft | 446 kts | 215° |
| 2026-05-03 21:33 | 42.39658 | -71.17380 | 24775 ft | 448 kts | 219° |
| 2026-05-03 21:33 | 42.37145 | -71.19951 | 24409 ft | 452 kts | 221° |
| 2026-05-03 21:34 | 42.34620 | -71.22534 | 24050 ft | 457 kts | 220° |
| 2026-05-03 21:34 | 42.32144 | -71.25016 | 23715 ft | 461 kts | 220° |
| 2026-05-03 21:34 | 42.29502 | -71.27639 | 23339 ft | 466 kts | 220° |
| 2026-05-03 21:34 | 42.26909 | -71.30213 | 22924 ft | 469 kts | 220° |
| 2026-05-03 21:35 | 42.24235 | -71.32771 | 22661 ft | 471 kts | 218° |
| 2026-05-03 21:35 | 42.21454 | -71.35116 | 22546 ft | 470 kts | 216° |
| 2026-05-03 21:35 | 42.18819 | -71.37204 | 22688 ft | 464 kts | 213° |
| 2026-05-03 21:35 | 42.16818 | -71.38593 | 22937 ft | 457 kts | 211° |
| 2026-05-03 21:36 | 42.14379 | -71.40191 | 23300 ft | 447 kts | 211° |
| 2026-05-03 21:36 | 42.11622 | -71.41988 | 23655 ft | 434 kts | 211° |
| 2026-05-03 21:36 | 42.08934 | -71.43727 | 24014 ft | 423 kts | 211° |
| 2026-05-03 21:36 | 42.06351 | -71.45503 | 24369 ft | 409 kts | 214° |
| 2026-05-03 21:37 | 42.03954 | -71.47376 | 24718 ft | 396 kts | 217° |
| 2026-05-03 21:37 | 42.01639 | -71.49260 | 25075 ft | 383 kts | 217° |
| 2026-05-03 21:37 | 41.99393 | -71.51077 | 25432 ft | 371 kts | 217° |
| 2026-05-03 21:37 | 41.97213 | -71.52831 | 25798 ft | 357 kts | 218° |
| 2026-05-03 21:38 | 41.95339 | -71.54844 | 26171 ft | 334 kts | 231° |
| 2026-05-03 21:38 | 41.93721 | -71.57013 | 26449 ft | 324 kts | 230° |
| 2026-05-03 21:38 | 41.92096 | -71.59105 | 26372 ft | 324 kts | 230° |
| 2026-05-03 21:38 | 41.90490 | -71.61160 | 26277 ft | 323 kts | 230° |
| 2026-05-03 21:39 | 41.88850 | -71.63251 | 26195 ft | 323 kts | 230° |
| 2026-05-03 21:39 | 41.87220 | -71.65326 | 26115 ft | 322 kts | 230° |
| 2026-05-03 21:39 | 41.85588 | -71.67398 | 26028 ft | 322 kts | 230° |
| 2026-05-03 21:39 | 41.83961 | -71.69460 | 25953 ft | 322 kts | 230° |
| 2026-05-03 21:40 | 41.82344 | -71.71506 | 25910 ft | 326 kts | 231° |
| 2026-05-03 21:40 | 41.80664 | -71.73625 | 25992 ft | 335 kts | 231° |
| 2026-05-03 21:40 | 41.78925 | -71.75762 | 26052 ft | 346 kts | 226° |
| 2026-05-03 21:40 | 41.76992 | -71.77776 | 26137 ft | 356 kts | 223° |
| 2026-05-03 21:41 | 41.74928 | -71.79682 | 26223 ft | 367 kts | 219° |
| 2026-05-03 21:41 | 41.72717 | -71.81488 | 26326 ft | 376 kts | 218° |
| 2026-05-03 21:41 | 41.70483 | -71.83386 | 26415 ft | 382 kts | 223° |
| 2026-05-03 21:41 | 41.68404 | -71.85560 | 26494 ft | 388 kts | 225° |
| 2026-05-03 21:42 | 41.66294 | -71.87881 | 26575 ft | 396 kts | 226° |
| 2026-05-03 21:42 | 41.64152 | -71.90253 | 26666 ft | 404 kts | 225° |
| 2026-05-03 21:42 | 41.61970 | -71.92683 | 26770 ft | 412 kts | 225° |
| 2026-05-03 21:42 | 41.59749 | -71.95167 | 26850 ft | 419 kts | 225° |
| 2026-05-03 21:43 | 41.57494 | -71.97697 | 26997 ft | 425 kts | 225° |
| 2026-05-03 21:43 | 41.55224 | -72.00252 | 27299 ft | 426 kts | 225° |
| 2026-05-03 21:43 | 41.52962 | -72.02805 | 27609 ft | 428 kts | 225° |
| 2026-05-03 21:43 | 41.50684 | -72.05384 | 27898 ft | 429 kts | 225° |
| 2026-05-03 21:44 | 41.48434 | -72.07936 | 28177 ft | 431 kts | 225° |
| 2026-05-03 21:44 | 41.46147 | -72.10538 | 28443 ft | 432 kts | 225° |
| 2026-05-03 21:44 | 41.43850 | -72.13157 | 28707 ft | 434 kts | 225° |
| 2026-05-03 21:44 | 41.41553 | -72.15779 | 28968 ft | 435 kts | 225° |
| 2026-05-03 21:45 | 41.39248 | -72.18414 | 29200 ft | 437 kts | 225° |
| 2026-05-03 21:45 | 41.36949 | -72.21048 | 29443 ft | 438 kts | 225° |
| 2026-05-03 21:45 | 41.34635 | -72.23701 | 29691 ft | 439 kts | 225° |
| 2026-05-03 21:45 | 41.32304 | -72.26378 | 29930 ft | 441 kts | 225° |
| 2026-05-03 21:46 | 41.30016 | -72.29010 | 30161 ft | 442 kts | 226° |
| 2026-05-03 21:46 | 41.27719 | -72.31651 | 30347 ft | 443 kts | 226° |
| 2026-05-03 21:46 | 41.25380 | -72.34342 | 30543 ft | 445 kts | 226° |
| 2026-05-03 21:46 | 41.23032 | -72.37048 | 30739 ft | 446 kts | 226° |
| 2026-05-03 21:47 | 41.20693 | -72.39744 | 30919 ft | 447 kts | 226° |
| 2026-05-03 21:47 | 41.18334 | -72.42465 | 31051 ft | 449 kts | 226° |
| 2026-05-03 21:47 | 41.15977 | -72.45186 | 31223 ft | 449 kts | 226° |
| 2026-05-03 21:47 | 41.13616 | -72.47914 | 31428 ft | 448 kts | 226° |
| 2026-05-03 21:48 | 41.11292 | -72.50598 | 31634 ft | 448 kts | 226° |
| 2026-05-03 21:48 | 41.08944 | -72.53313 | 31826 ft | 447 kts | 226° |
| 2026-05-03 21:48 | 41.06593 | -72.56032 | 32016 ft | 447 kts | 226° |
| 2026-05-03 21:48 | 41.04249 | -72.58744 | 32226 ft | 447 kts | 226° |
| 2026-05-03 21:49 | 41.01909 | -72.61451 | 32389 ft | 446 kts | 226° |
| 2026-05-03 21:49 | 40.99569 | -72.64160 | 32568 ft | 446 kts | 226° |
| 2026-05-03 21:49 | 40.97267 | -72.66824 | 32752 ft | 445 kts | 226° |
| 2026-05-03 21:49 | 40.94934 | -72.69527 | 32926 ft | 445 kts | 226° |
| 2026-05-03 21:50 | 40.92612 | -72.72216 | 33089 ft | 444 kts | 226° |
| 2026-05-03 21:50 | 40.90285 | -72.74912 | 33262 ft | 444 kts | 226° |
| 2026-05-03 21:50 | 40.88120 | -72.77791 | 33422 ft | 438 kts | 235° |
| 2026-05-03 21:50 | 40.86316 | -72.81027 | 33575 ft | 435 kts | 239° |
| 2026-05-03 21:51 | 40.84595 | -72.84303 | 33733 ft | 434 kts | 239° |
| 2026-05-03 21:51 | 40.82882 | -72.87577 | 33881 ft | 434 kts | 239° |
| 2026-05-03 21:51 | 40.81107 | -72.90805 | 34005 ft | 436 kts | 233° |
| 2026-05-03 21:51 | 40.78978 | -72.93625 | 34116 ft | 441 kts | 225° |
| 2026-05-03 21:52 | 40.73947 | -72.98395 | 34157 ft | 451 kts | 216° |
| 2026-05-03 21:52 | 40.68560 | -73.02676 | 34159 ft | 452 kts | 218° |
| 2026-05-03 21:53 | 40.63239 | -73.07172 | 34166 ft | 453 kts | 219° |
| 2026-05-03 21:53 | 40.58250 | -73.12177 | 34174 ft | 446 kts | 230° |
| 2026-05-03 21:54 | 40.54381 | -73.18471 | 34179 ft | 442 kts | 237° |
| 2026-05-03 21:54 | 40.49952 | -73.24077 | 34184 ft | 455 kts | 217° |
| 2026-05-03 21:55 | 40.44323 | -73.28033 | 34192 ft | 461 kts | 210° |
| 2026-05-03 21:55 | 40.38441 | -73.31452 | 34204 ft | 459 kts | 214° |
| 2026-05-03 21:56 | 40.32968 | -73.35719 | 34206 ft | 456 kts | 217° |
| 2026-05-03 21:56 | 40.27587 | -73.40021 | 34204 ft | 456 kts | 217° |
| 2026-05-03 21:57 | 40.22160 | -73.44346 | 34218 ft | 456 kts | 217° |
| 2026-05-03 21:57 | 40.16732 | -73.48654 | 34220 ft | 456 kts | 217° |
| 2026-05-03 21:58 | 40.11300 | -73.52948 | 34225 ft | 456 kts | 217° |
| 2026-05-03 21:58 | 40.05936 | -73.57239 | 34229 ft | 453 kts | 220° |
| 2026-05-03 21:59 | 40.01160 | -73.62455 | 34233 ft | 443 kts | 232° |
| 2026-05-03 21:59 | 39.97937 | -73.67609 | 34235 ft | 438 kts | 237° |
| 2026-05-03 22:00 | 39.93645 | -73.74968 | 34238 ft | 439 kts | 236° |
| 2026-05-03 22:00 | 39.91495 | -73.77840 | 34240 ft | 447 kts | 224° |
| 2026-05-03 22:00 | 39.89837 | -73.79379 | 34241 ft | 454 kts | 217° |
| 2026-05-03 22:01 | 39.86913 | -73.81183 | 34245 ft | 465 kts | 205° |
| 2026-05-03 22:01 | 39.83780 | -73.82389 | 34246 ft | 469 kts | 202° |
| 2026-05-03 22:01 | 39.77178 | -73.83397 | 34241 ft | 486 kts | 187° |
| 2026-05-03 22:02 | 39.70402 | -73.83319 | 34248 ft | 478 kts | 195° |
| 2026-05-03 22:02 | 39.67255 | -73.84242 | 34251 ft | 465 kts | 207° |
| 2026-05-03 22:02 | 39.64291 | -73.85862 | 34252 ft | 459 kts | 212° |
| 2026-05-03 22:03 | 39.58497 | -73.89404 | 34259 ft | 459 kts | 212° |
| 2026-05-03 22:03 | 39.52709 | -73.92938 | 34282 ft | 459 kts | 212° |
| 2026-05-03 22:04 | 39.46915 | -73.96465 | 34259 ft | 460 kts | 212° |
| 2026-05-03 22:04 | 39.41175 | -74.00020 | 34260 ft | 456 kts | 216° |
| 2026-05-03 22:05 | 39.35949 | -74.04537 | 34264 ft | 449 kts | 223° |
| 2026-05-03 22:05 | 39.30880 | -74.09250 | 34252 ft | 449 kts | 223° |
| 2026-05-03 22:06 | 39.25838 | -74.13941 | 34265 ft | 447 kts | 223° |
| 2026-05-03 22:06 | 39.20789 | -74.18637 | 34259 ft | 447 kts | 223° |
| 2026-05-03 22:07 | 39.15743 | -74.23336 | 34266 ft | 447 kts | 223° |
| 2026-05-03 22:07 | 39.10703 | -74.28030 | 34263 ft | 446 kts | 223° |
| 2026-05-03 22:08 | 39.05660 | -74.32732 | 34288 ft | 446 kts | 223° |
| 2026-05-03 22:08 | 39.00658 | -74.37395 | 34278 ft | 441 kts | 223° |
| 2026-05-03 22:09 | 38.98205 | -74.39669 | 34276 ft | 426 kts | 223° |
| 2026-05-03 22:09 | 38.95825 | -74.41857 | 34285 ft | 418 kts | 223° |
| 2026-05-03 22:10 | 38.89424 | -74.49270 | 34286 ft | 410 kts | 244° |
| 2026-05-03 22:10 | 38.87008 | -74.55881 | 34284 ft | 411 kts | 250° |
| 2026-05-03 22:11 | 38.84214 | -74.62355 | 34287 ft | 420 kts | 238° |
| 2026-05-03 22:11 | 38.80681 | -74.68313 | 34288 ft | 424 kts | 235° |
| 2026-05-03 22:11 | 38.78537 | -74.70963 | 34288 ft | 434 kts | 224° |
| 2026-05-03 22:12 | 38.76077 | -74.73220 | 34288 ft | 436 kts | 223° |
| 2026-05-03 22:12 | 38.71185 | -74.77829 | 34293 ft | 434 kts | 225° |
| 2026-05-03 22:13 | 38.67017 | -74.83214 | 34298 ft | 418 kts | 242° |
| 2026-05-03 22:13 | 38.63534 | -74.89173 | 34293 ft | 428 kts | 227° |
| 2026-05-03 22:14 | 38.58499 | -74.93372 | 34300 ft | 441 kts | 216° |
| 2026-05-03 22:14 | 38.53085 | -74.97046 | 34302 ft | 437 kts | 219° |
| 2026-05-03 22:15 | 38.48284 | -75.01598 | 34302 ft | 426 kts | 228° |
| 2026-05-03 22:15 | 38.44003 | -75.06760 | 34299 ft | 422 kts | 230° |
| 2026-05-03 22:16 | 38.39082 | -75.11067 | 34301 ft | 436 kts | 215° |
| 2026-05-03 22:16 | 38.33805 | -75.14660 | 34298 ft | 431 kts | 219° |
| 2026-05-03 22:17 | 38.28854 | -75.18863 | 34298 ft | 424 kts | 223° |
| 2026-05-03 22:17 | 38.24085 | -75.23258 | 34297 ft | 422 kts | 223° |
| 2026-05-03 22:18 | 38.19375 | -75.27583 | 34300 ft | 403 kts | 223° |
| 2026-05-03 22:18 | 38.14821 | -75.31726 | 34307 ft | 407 kts | 223° |
| 2026-05-03 22:19 | 38.10220 | -75.35791 | 34314 ft | 398 kts | 224° |
| 2026-05-03 22:19 | 38.08132 | -75.38017 | 34312 ft | 385 kts | 232° |
| 2026-05-03 22:19 | 38.06303 | -75.40468 | 34321 ft | 380 kts | 233° |
| 2026-05-03 22:20 | 38.02738 | -75.45371 | 34320 ft | 374 kts | 233° |
| 2026-05-03 22:20 | 37.98592 | -75.49409 | 34320 ft | 386 kts | 215° |
| 2026-05-03 22:21 | 37.93743 | -75.52281 | 34320 ft | 391 kts | 214° |
| 2026-05-03 22:21 | 37.88841 | -75.55373 | 34317 ft | 397 kts | 217° |
| 2026-05-03 22:22 | 37.83899 | -75.58629 | 34318 ft | 404 kts | 217° |
| 2026-05-03 22:22 | 37.80420 | -75.60933 | 34316 ft | 407 kts | 217° |
| 2026-05-03 22:23 | 37.75564 | -75.63566 | 34323 ft | 427 kts | 203° |
| 2026-05-03 22:23 | 37.72663 | -75.64027 | 34328 ft | 446 kts | 192° |
| 2026-05-03 22:23 | 37.69494 | -75.63689 | 34326 ft | 466 kts | 180° |
| 2026-05-03 22:24 | 37.63113 | -75.61604 | 34323 ft | 468 kts | 181° |
| 2026-05-03 22:24 | 37.59931 | -75.61141 | 34331 ft | 454 kts | 189° |
| 2026-05-03 22:24 | 37.56776 | -75.60991 | 34326 ft | 453 kts | 189° |
| 2026-05-03 22:25 | 37.50508 | -75.60734 | 34329 ft | 453 kts | 189° |
| 2026-05-03 22:25 | 37.44190 | -75.60474 | 34326 ft | 453 kts | 189° |
| 2026-05-03 22:26 | 37.37863 | -75.60213 | 34329 ft | 453 kts | 189° |
| 2026-05-03 22:26 | 37.31687 | -75.60181 | 34338 ft | 445 kts | 194° |
| 2026-05-03 22:27 | 37.25655 | -75.61217 | 34342 ft | 430 kts | 203° |
| 2026-05-03 22:27 | 37.19992 | -75.63219 | 34353 ft | 421 kts | 208° |
| 2026-05-03 22:28 | 37.14475 | -75.65756 | 34351 ft | 415 kts | 212° |
| 2026-05-03 22:28 | 37.09275 | -75.68742 | 34353 ft | 409 kts | 217° |
| 2026-05-03 22:29 | 37.04454 | -75.72421 | 34348 ft | 402 kts | 223° |
| 2026-05-03 22:29 | 36.99760 | -75.76293 | 34342 ft | 408 kts | 217° |
| 2026-05-03 22:30 | 36.94727 | -75.79537 | 34334 ft | 408 kts | 217° |
| 2026-05-03 22:30 | 36.89793 | -75.83033 | 34326 ft | 405 kts | 219° |
| 2026-05-03 22:31 | 36.84899 | -75.86564 | 34320 ft | 407 kts | 217° |
| 2026-05-03 22:31 | 36.79978 | -75.89970 | 34320 ft | 406 kts | 218° |
| 2026-05-03 22:32 | 36.75016 | -75.93385 | 34319 ft | 410 kts | 213° |
| 2026-05-03 22:32 | 36.69623 | -75.95957 | 34320 ft | 416 kts | 209° |
| 2026-05-03 22:33 | 36.64169 | -75.98383 | 34326 ft | 416 kts | 209° |
| 2026-05-03 22:33 | 36.58851 | -76.00755 | 34328 ft | 416 kts | 209° |
| 2026-05-03 22:34 | 36.53399 | -76.03196 | 34337 ft | 415 kts | 209° |
| 2026-05-03 22:34 | 36.47956 | -76.05640 | 34337 ft | 415 kts | 209° |
| 2026-05-03 22:35 | 36.42567 | -76.08072 | 34337 ft | 414 kts | 209° |
| 2026-05-03 22:35 | 36.37148 | -76.10524 | 34334 ft | 414 kts | 209° |
| 2026-05-03 22:36 | 36.31821 | -76.13139 | 34337 ft | 409 kts | 212° |
| 2026-05-03 22:36 | 36.26621 | -76.16018 | 34336 ft | 407 kts | 214° |
| 2026-05-03 22:37 | 36.21543 | -76.19100 | 34337 ft | 406 kts | 214° |
| 2026-05-03 22:37 | 36.16512 | -76.22182 | 34337 ft | 404 kts | 216° |
| 2026-05-03 22:37 | 36.14247 | -76.24131 | 34339 ft | 392 kts | 227° |
| 2026-05-03 22:38 | 36.12279 | -76.26455 | 34334 ft | 390 kts | 229° |
| 2026-05-03 22:38 | 36.08407 | -76.31184 | 34344 ft | 391 kts | 229° |
| 2026-05-03 22:39 | 36.04544 | -76.35919 | 34358 ft | 390 kts | 229° |
| 2026-05-03 22:39 | 36.00716 | -76.40627 | 34357 ft | 390 kts | 229° |
| 2026-05-03 22:40 | 35.96821 | -76.45326 | 34351 ft | 393 kts | 224° |
| 2026-05-03 22:40 | 35.94510 | -76.47133 | 34352 ft | 404 kts | 212° |
| 2026-05-03 22:40 | 35.91892 | -76.48459 | 34354 ft | 408 kts | 210° |
| 2026-05-03 22:41 | 35.86853 | -76.51515 | 34349 ft | 399 kts | 219° |
| 2026-05-03 22:41 | 35.82678 | -76.55817 | 34351 ft | 390 kts | 228° |
| 2026-05-03 22:42 | 35.78573 | -76.60213 | 34350 ft | 398 kts | 217° |
| 2026-05-03 22:42 | 35.76027 | -76.61647 | 34354 ft | 409 kts | 207° |
| 2026-05-03 22:42 | 35.73301 | -76.62741 | 34350 ft | 411 kts | 207° |
| 2026-05-03 22:43 | 35.67970 | -76.65073 | 34354 ft | 409 kts | 208° |
| 2026-05-03 22:43 | 35.62644 | -76.67297 | 34354 ft | 411 kts | 206° |
| 2026-05-03 22:44 | 35.57107 | -76.69468 | 34357 ft | 411 kts | 206° |
| 2026-05-03 22:44 | 35.51690 | -76.71595 | 34353 ft | 411 kts | 206° |
| 2026-05-03 22:45 | 35.46238 | -76.73739 | 34353 ft | 411 kts | 206° |
| 2026-05-03 22:45 | 35.41687 | -76.75544 | 34358 ft | 409 kts | 208° |
| 2026-05-03 22:46 | 35.35636 | -76.78585 | 34356 ft | 404 kts | 212° |
| 2026-05-03 22:46 | 35.31427 | -76.80846 | 34353 ft | 404 kts | 212° |
| 2026-05-03 23:06 | 35.29199 | -76.82058 | 34349 ft | 388 kts | 211° |
| 2026-05-03 23:07 | 35.24546 | -76.85014 | 34357 ft | 361 kts | 223° |
| 2026-05-03 23:07 | 35.22753 | -76.87100 | 34363 ft | 350 kts | 230° |
| 2026-05-03 23:07 | 35.21148 | -76.89288 | 34358 ft | 344 kts | 230° |
| 2026-05-03 23:08 | 35.18001 | -76.93592 | 34356 ft | 332 kts | 230° |
| 2026-05-03 23:08 | 35.14800 | -76.97533 | 34357 ft | 325 kts | 221° |
| 2026-05-03 23:09 | 35.10950 | -77.00311 | 34355 ft | 318 kts | 216° |
| 2026-05-03 23:09 | 35.07155 | -77.02831 | 34356 ft | 302 kts | 221° |
| 2026-05-03 23:09 | 35.05698 | -77.04233 | 34358 ft | 291 kts | 229° |
| 2026-05-03 23:10 | 35.04386 | -77.06061 | 34355 ft | 283 kts | 232° |
| 2026-05-03 23:10 | 35.02877 | -77.07581 | 34313 ft | 287 kts | 214° |
| 2026-05-03 23:10 | 35.00901 | -77.08283 | 33904 ft | 312 kts | 197° |
| 2026-05-03 23:10 | 34.98852 | -77.08885 | 33155 ft | 311 kts | 208° |
| 2026-05-03 23:11 | 34.96695 | -77.09681 | 32322 ft | 331 kts | 207° |
| 2026-05-03 23:11 | 34.92345 | -77.11195 | 32495 ft | 315 kts | 206° |
| 2026-05-03 23:12 | 34.88175 | -77.12592 | 32426 ft | 308 kts | 207° |
| 2026-05-03 23:12 | 34.86131 | -77.13272 | 32283 ft | 310 kts | 207° |
| 2026-05-03 23:12 | 34.83998 | -77.13976 | 32313 ft | 316 kts | 207° |
| 2026-05-03 23:13 | 34.79744 | -77.15487 | 32394 ft | 321 kts | 212° |
| 2026-05-03 23:13 | 34.75693 | -77.17750 | 32775 ft | 317 kts | 215° |
| 2026-05-03 23:13 | 34.73720 | -77.18904 | 33193 ft | 312 kts | 215° |
| 2026-05-03 23:14 | 34.71797 | -77.20026 | 33579 ft | 307 kts | 215° |
| 2026-05-03 23:14 | 34.69876 | -77.21145 | 33821 ft | 306 kts | 215° |
| 2026-05-03 23:14 | 34.67949 | -77.22273 | 33981 ft | 307 kts | 215° |
| 2026-05-03 23:14 | 34.66018 | -77.23406 | 34124 ft | 308 kts | 215° |
| 2026-05-03 23:15 | 34.64077 | -77.24547 | 34262 ft | 309 kts | 215° |
| 2026-05-03 23:15 | 34.60398 | -77.27158 | 34346 ft | 310 kts | 222° |
| 2026-05-03 23:16 | 34.56823 | -77.30225 | 34351 ft | 320 kts | 222° |
| 2026-05-03 23:16 | 34.53171 | -77.33392 | 34355 ft | 330 kts | 222° |
| 2026-05-03 23:17 | 34.49387 | -77.36670 | 34345 ft | 342 kts | 218° |
| 2026-05-03 23:17 | 34.47178 | -77.37878 | 34356 ft | 360 kts | 205° |
| 2026-05-03 23:17 | 34.44675 | -77.38496 | 34362 ft | 373 kts | 200° |
| 2026-05-03 23:18 | 34.39455 | -77.39543 | 34361 ft | 382 kts | 202° |
| 2026-05-03 23:18 | 34.34324 | -77.41179 | 34364 ft | 384 kts | 206° |
| 2026-05-03 23:19 | 34.29257 | -77.43243 | 34363 ft | 391 kts | 206° |
| 2026-05-03 23:19 | 34.26528 | -77.43884 | 34366 ft | 410 kts | 194° |
| 2026-05-03 23:19 | 34.23657 | -77.44058 | 34368 ft | 413 kts | 195° |
| 2026-05-03 23:20 | 34.17946 | -77.44809 | 34371 ft | 411 kts | 198° |
| 2026-05-03 23:20 | 34.12257 | -77.45727 | 34424 ft | 412 kts | 198° |
| 2026-05-03 23:20 | 34.09431 | -77.46178 | 34668 ft | 407 kts | 198° |
| 2026-05-03 23:21 | 34.06662 | -77.46613 | 34813 ft | 406 kts | 198° |
| 2026-05-03 23:21 | 34.03867 | -77.47048 | 35003 ft | 403 kts | 198° |
| 2026-05-03 23:21 | 34.01093 | -77.47472 | 35233 ft | 399 kts | 198° |
| 2026-05-03 23:21 | 33.98346 | -77.47884 | 35471 ft | 396 kts | 198° |
| 2026-05-03 23:22 | 33.92905 | -77.48680 | 35946 ft | 390 kts | 198° |
| 2026-05-03 23:22 | 33.90257 | -77.49057 | 36184 ft | 387 kts | 198° |
| 2026-05-03 23:22 | 33.87577 | -77.49434 | 36356 ft | 386 kts | 198° |
| 2026-05-03 23:23 | 33.82209 | -77.50195 | 36385 ft | 390 kts | 198° |
| 2026-05-03 23:23 | 33.76790 | -77.50977 | 36389 ft | 393 kts | 198° |
| 2026-05-03 23:24 | 33.71375 | -77.51769 | 36389 ft | 396 kts | 198° |
| 2026-05-03 23:24 | 33.65888 | -77.52580 | 36390 ft | 397 kts | 198° |
| 2026-05-03 23:25 | 33.60395 | -77.53398 | 36394 ft | 398 kts | 198° |
| 2026-05-03 23:25 | 33.54964 | -77.54379 | 36395 ft | 392 kts | 203° |
| 2026-05-03 23:26 | 33.49866 | -77.56390 | 36397 ft | 382 kts | 210° |
| 2026-05-03 23:26 | 33.44918 | -77.58754 | 36395 ft | 383 kts | 210° |
| 2026-05-03 23:27 | 33.40934 | -77.60664 | 36395 ft | 383 kts | 210° |
| 2026-05-03 23:27 | 33.35993 | -77.63039 | 36400 ft | 383 kts | 210° |
| 2026-05-03 23:28 | 33.31084 | -77.65402 | 36403 ft | 383 kts | 210° |
| 2026-05-03 23:28 | 33.26162 | -77.67777 | 36397 ft | 384 kts | 210° |
| 2026-05-03 23:29 | 33.21192 | -77.70163 | 36397 ft | 385 kts | 209° |
| 2026-05-03 23:29 | 33.16034 | -77.72095 | 36397 ft | 392 kts | 204° |
| 2026-05-03 23:30 | 33.10751 | -77.73631 | 36445 ft | 392 kts | 203° |
| 2026-05-03 23:30 | 33.08098 | -77.74391 | 36777 ft | 389 kts | 203° |
| 2026-05-03 23:30 | 33.05447 | -77.75123 | 36697 ft | 393 kts | 204° |
| 2026-05-03 23:31 | 33.00061 | -77.76564 | 36578 ft | 398 kts | 203° |
| 2026-05-03 23:31 | 32.97361 | -77.77299 | 36185 ft | 406 kts | 203° |
| 2026-05-03 23:31 | 32.94612 | -77.78091 | 36080 ft | 407 kts | 204° |
| 2026-05-03 23:32 | 32.91862 | -77.78912 | 35957 ft | 409 kts | 204° |
| 2026-05-03 23:32 | 32.89113 | -77.79738 | 36137 ft | 403 kts | 204° |
| 2026-05-03 23:32 | 32.86411 | -77.80540 | 36415 ft | 397 kts | 204° |
| 2026-05-03 23:32 | 32.83746 | -77.81323 | 36589 ft | 394 kts | 204° |
| 2026-05-03 23:33 | 32.81086 | -77.82100 | 36697 ft | 392 kts | 204° |
| 2026-05-03 23:33 | 32.78434 | -77.82872 | 36780 ft | 391 kts | 204° |
| 2026-05-03 23:33 | 32.73179 | -77.84398 | 36885 ft | 390 kts | 204° |
| 2026-05-03 23:34 | 32.72091 | -77.84713 | 36904 ft | 390 kts | 204° |
| 2026-05-03 23:34 | 32.69997 | -77.85294 | 36935 ft | 383 kts | 202° |
| 2026-05-03 23:35 | 32.64905 | -77.86699 | 36579 ft | 375 kts | 204° |
| 2026-05-03 23:35 | 32.62377 | -77.87454 | 36302 ft | 375 kts | 204° |
| 2026-05-03 23:35 | 32.59836 | -77.88220 | 36022 ft | 375 kts | 204° |
| 2026-05-03 23:36 | 32.57308 | -77.88990 | 35748 ft | 375 kts | 204° |
| 2026-05-03 23:36 | 32.54806 | -77.89759 | 35480 ft | 375 kts | 204° |
| 2026-05-03 23:36 | 32.52285 | -77.90543 | 35217 ft | 375 kts | 204° |
| 2026-05-03 23:36 | 32.49749 | -77.91341 | 34945 ft | 376 kts | 204° |
| 2026-05-03 23:37 | 32.47220 | -77.92146 | 34684 ft | 377 kts | 204° |
| 2026-05-03 23:37 | 32.44692 | -77.92960 | 34460 ft | 376 kts | 204° |
| 2026-05-03 23:37 | 32.39701 | -77.94570 | 34406 ft | 366 kts | 204° |
| 2026-05-03 23:38 | 32.34856 | -77.96103 | 34408 ft | 354 kts | 204° |
| 2026-05-03 23:38 | 32.30178 | -77.97551 | 34405 ft | 343 kts | 204° |
| 2026-05-03 23:39 | 32.25627 | -77.98925 | 34407 ft | 332 kts | 204° |
| 2026-05-03 23:39 | 32.21222 | -78.00217 | 34404 ft | 319 kts | 204° |
| 2026-05-03 23:40 | 32.17005 | -78.01410 | 34406 ft | 306 kts | 204° |
| 2026-05-03 23:40 | 32.12896 | -78.02589 | 34284 ft | 306 kts | 207° |
| 2026-05-03 23:41 | 32.08726 | -78.04037 | 33960 ft | 325 kts | 206° |
| 2026-05-03 23:41 | 32.06452 | -78.04762 | 33394 ft | 345 kts | 206° |
| 2026-05-03 23:41 | 32.04144 | -78.05468 | 33814 ft | 337 kts | 206° |
| 2026-05-03 23:42 | 31.99593 | -78.07070 | 33329 ft | 359 kts | 207° |
| 2026-05-03 23:42 | 31.97149 | -78.07869 | 33438 ft | 364 kts | 205° |
| 2026-05-03 23:42 | 31.94713 | -78.08617 | 33825 ft | 360 kts | 205° |
| 2026-05-03 23:43 | 31.92299 | -78.09352 | 34208 ft | 355 kts | 205° |
| 2026-05-03 23:43 | 31.89941 | -78.10067 | 34398 ft | 356 kts | 205° |
| 2026-05-03 23:43 | 31.85083 | -78.11556 | 34407 ft | 365 kts | 205° |
| 2026-05-03 23:44 | 31.80201 | -78.13373 | 34405 ft | 371 kts | 209° |
| 2026-05-03 23:44 | 31.75284 | -78.15464 | 34404 ft | 381 kts | 209° |
| 2026-05-03 23:45 | 31.70215 | -78.17621 | 34404 ft | 393 kts | 207° |
| 2026-05-03 23:45 | 31.64944 | -78.19549 | 34403 ft | 404 kts | 206° |
| 2026-05-03 23:46 | 31.59506 | -78.21525 | 34404 ft | 411 kts | 206° |
| 2026-05-03 23:46 | 31.54045 | -78.23524 | 34402 ft | 415 kts | 206° |
| 2026-05-03 23:47 | 31.48505 | -78.25562 | 34401 ft | 418 kts | 206° |
| 2026-05-03 23:47 | 31.42926 | -78.27617 | 34398 ft | 420 kts | 206° |
| 2026-05-03 23:48 | 31.37344 | -78.29674 | 34400 ft | 421 kts | 206° |
| 2026-05-03 23:48 | 31.32233 | -78.31555 | 34397 ft | 421 kts | 206° |
| 2026-05-03 23:49 | 31.26628 | -78.33617 | 34403 ft | 422 kts | 206° |
| 2026-05-03 23:49 | 31.21039 | -78.35676 | 34397 ft | 422 kts | 206° |
| 2026-05-03 23:50 | 31.15488 | -78.37699 | 34400 ft | 424 kts | 205° |
| 2026-05-03 23:50 | 31.09727 | -78.39301 | 34397 ft | 429 kts | 201° |
| 2026-05-03 23:51 | 31.03877 | -78.40732 | 34396 ft | 429 kts | 201° |
| 2026-05-03 23:51 | 30.98081 | -78.42144 | 34391 ft | 429 kts | 201° |
| 2026-05-03 23:52 | 30.92217 | -78.43563 | 34394 ft | 429 kts | 201° |
| 2026-05-03 23:52 | 30.86381 | -78.44968 | 34397 ft | 428 kts | 201° |
| 2026-05-03 23:53 | 30.80569 | -78.46362 | 34395 ft | 428 kts | 201° |
| 2026-05-03 23:53 | 30.74734 | -78.47757 | 34391 ft | 428 kts | 201° |
| 2026-05-03 23:54 | 30.68891 | -78.49149 | 34390 ft | 428 kts | 201° |
| 2026-05-03 23:54 | 30.63057 | -78.50531 | 34390 ft | 421 kts | 201° |
| 2026-05-03 23:55 | 30.60242 | -78.51176 | 34391 ft | 405 kts | 201° |
| 2026-05-03 23:55 | 30.57501 | -78.51783 | 34393 ft | 398 kts | 201° |
| 2026-05-03 23:55 | 30.52037 | -78.52998 | 34388 ft | 404 kts | 201° |
| 2026-05-03 23:56 | 30.46581 | -78.54410 | 34388 ft | 396 kts | 206° |
| 2026-05-03 23:56 | 30.41303 | -78.56211 | 34390 ft | 395 kts | 206° |
| 2026-05-03 23:57 | 30.36032 | -78.58014 | 34386 ft | 396 kts | 205° |
| 2026-05-03 23:57 | 30.30669 | -78.59511 | 34383 ft | 398 kts | 203° |
| 2026-05-03 23:58 | 30.25258 | -78.60963 | 34386 ft | 398 kts | 203° |
| 2026-05-03 23:58 | 30.19888 | -78.62417 | 34384 ft | 396 kts | 205° |
| 2026-05-03 23:59 | 30.14571 | -78.64088 | 34383 ft | 394 kts | 205° |
| 2026-05-03 23:59 | 30.09281 | -78.65769 | 34381 ft | 394 kts | 205° |
| 2026-05-04 00:00 | 30.04026 | -78.67439 | 34377 ft | 393 kts | 206° |
| 2026-05-04 00:00 | 29.99025 | -78.69635 | 34377 ft | 386 kts | 211° |
| 2026-05-04 00:01 | 29.94033 | -78.71954 | 34381 ft | 382 kts | 214° |
| 2026-05-04 00:01 | 29.89346 | -78.74728 | 34371 ft | 380 kts | 215° |
| 2026-05-04 00:02 | 29.84661 | -78.77530 | 34374 ft | 379 kts | 215° |
| 2026-05-04 00:02 | 29.79877 | -78.80116 | 34369 ft | 384 kts | 212° |
| 2026-05-04 00:03 | 29.75054 | -78.82675 | 34373 ft | 384 kts | 211° |
| 2026-05-04 00:03 | 29.69880 | -78.84579 | 34368 ft | 397 kts | 201° |
| 2026-05-04 00:04 | 29.64293 | -78.85276 | 34368 ft | 409 kts | 194° |
| 2026-05-04 00:04 | 29.58558 | -78.85411 | 34363 ft | 409 kts | 195° |
| 2026-05-04 00:05 | 29.53008 | -78.86157 | 34365 ft | 401 kts | 199° |
| 2026-05-04 00:05 | 29.47564 | -78.87169 | 34364 ft | 397 kts | 202° |
| 2026-05-04 00:06 | 29.42180 | -78.88685 | 34367 ft | 403 kts | 198° |
| 2026-05-04 00:06 | 29.36501 | -78.88979 | 34355 ft | 419 kts | 188° |
| 2026-05-04 00:07 | 29.30645 | -78.88433 | 34355 ft | 420 kts | 188° |
| 2026-05-04 00:07 | 29.24838 | -78.87991 | 34351 ft | 420 kts | 188° |
| 2026-05-04 00:08 | 29.19013 | -78.87597 | 34357 ft | 415 kts | 192° |
| 2026-05-04 00:08 | 29.13357 | -78.88096 | 34352 ft | 403 kts | 198° |
| 2026-05-04 00:09 | 29.07827 | -78.88926 | 34351 ft | 403 kts | 198° |
| 2026-05-04 00:09 | 29.02258 | -78.89768 | 34351 ft | 403 kts | 198° |
| 2026-05-04 00:10 | 28.96694 | -78.90616 | 34349 ft | 403 kts | 198° |
| 2026-05-04 00:10 | 28.91173 | -78.91461 | 34350 ft | 403 kts | 198° |
| 2026-05-04 00:11 | 28.85608 | -78.92317 | 34348 ft | 403 kts | 199° |
| 2026-05-04 00:11 | 28.80049 | -78.93177 | 34344 ft | 403 kts | 199° |
| 2026-05-04 00:12 | 28.74509 | -78.94041 | 34342 ft | 403 kts | 199° |
| 2026-05-04 00:12 | 28.68943 | -78.94912 | 34341 ft | 403 kts | 199° |
| 2026-05-04 00:13 | 28.63383 | -78.95786 | 34339 ft | 403 kts | 199° |
| 2026-05-04 00:13 | 28.57860 | -78.96660 | 34337 ft | 403 kts | 199° |
| 2026-05-04 00:14 | 28.52293 | -78.97545 | 34326 ft | 404 kts | 199° |
| 2026-05-04 00:14 | 28.46718 | -78.98437 | 34175 ft | 404 kts | 199° |
| 2026-05-04 00:15 | 28.43968 | -78.98881 | 34068 ft | 404 kts | 199° |
| 2026-05-04 00:15 | 28.41178 | -78.99335 | 34066 ft | 404 kts | 199° |
| 2026-05-04 00:15 | 28.35598 | -79.00254 | 34051 ft | 404 kts | 200° |
| 2026-05-04 00:16 | 28.30396 | -79.02070 | 34051 ft | 386 kts | 213° |
| 2026-05-04 00:16 | 28.25639 | -79.04851 | 34047 ft | 384 kts | 214° |
| 2026-05-04 00:17 | 28.20877 | -79.07641 | 34046 ft | 385 kts | 215° |
| 2026-05-04 00:17 | 28.15923 | -79.10062 | 34050 ft | 397 kts | 204° |
| 2026-05-04 00:18 | 28.10595 | -79.11665 | 34044 ft | 396 kts | 206° |
| 2026-05-04 00:18 | 28.05505 | -79.13891 | 34044 ft | 390 kts | 211° |
| 2026-05-04 00:19 | 28.00253 | -79.15779 | 34042 ft | 404 kts | 201° |
| 2026-05-04 00:19 | 27.94742 | -79.16943 | 34040 ft | 406 kts | 199° |
| 2026-05-04 00:20 | 27.89147 | -79.17937 | 34036 ft | 407 kts | 199° |
| 2026-05-04 00:20 | 27.83536 | -79.18941 | 34035 ft | 408 kts | 199° |
| 2026-05-04 00:21 | 27.77961 | -79.19950 | 34032 ft | 408 kts | 199° |
| 2026-05-04 00:21 | 27.73294 | -79.20803 | 34033 ft | 408 kts | 199° |
| 2026-05-04 00:22 | 27.66734 | -79.22018 | 34030 ft | 409 kts | 199° |
| 2026-05-04 00:22 | 27.62066 | -79.22890 | 34027 ft | 409 kts | 199° |
| 2026-05-04 00:23 | 27.56425 | -79.23958 | 34025 ft | 410 kts | 199° |
| 2026-05-04 00:23 | 27.51014 | -79.25631 | 34026 ft | 395 kts | 212° |
| 2026-05-04 00:24 | 27.46112 | -79.28364 | 34019 ft | 395 kts | 213° |
| 2026-05-04 00:24 | 27.41174 | -79.31089 | 34020 ft | 396 kts | 213° |
| 2026-05-04 00:25 | 27.36223 | -79.33832 | 34018 ft | 396 kts | 213° |
| 2026-05-04 00:25 | 27.31307 | -79.36562 | 34016 ft | 397 kts | 213° |
| 2026-05-04 00:26 | 27.26408 | -79.39454 | 34010 ft | 395 kts | 217° |
| 2026-05-04 00:26 | 27.21718 | -79.42656 | 34009 ft | 396 kts | 217° |
| 2026-05-04 00:27 | 27.16992 | -79.45890 | 34018 ft | 398 kts | 217° |
| 2026-05-04 00:27 | 27.11899 | -79.48498 | 34009 ft | 415 kts | 200° |
| 2026-05-04 00:28 | 27.06229 | -79.49768 | 34012 ft | 419 kts | 199° |
| 2026-05-04 00:28 | 27.00597 | -79.51372 | 34013 ft | 414 kts | 205° |
| 2026-05-04 00:29 | 26.95289 | -79.53767 | 34011 ft | 410 kts | 210° |
| 2026-05-04 00:29 | 26.90093 | -79.56330 | 34012 ft | 410 kts | 210° |
| 2026-05-04 00:30 | 26.84613 | -79.58390 | 34008 ft | 416 kts | 205° |
| 2026-05-04 00:30 | 26.79103 | -79.60410 | 34006 ft | 417 kts | 205° |
| 2026-05-04 00:31 | 26.73592 | -79.62427 | 34006 ft | 417 kts | 205° |
| 2026-05-04 00:31 | 26.68076 | -79.64448 | 34005 ft | 418 kts | 205° |
| 2026-05-04 00:32 | 26.62536 | -79.66483 | 34004 ft | 419 kts | 205° |
| 2026-05-04 00:32 | 26.56992 | -79.68522 | 34005 ft | 419 kts | 205° |
| 2026-05-04 00:33 | 26.48965 | -79.72109 | 34005 ft | 413 kts | 212° |
| 2026-05-04 00:34 | 26.43825 | -79.74992 | 34005 ft | 411 kts | 214° |
| 2026-05-04 00:34 | 26.41479 | -79.76752 | 34010 ft | 402 kts | 226° |
| 2026-05-04 00:34 | 26.39619 | -79.78998 | 34009 ft | 398 kts | 235° |
| 2026-05-04 00:35 | 26.36509 | -79.84046 | 34010 ft | 395 kts | 238° |
| 2026-05-04 00:35 | 26.33444 | -79.89209 | 34012 ft | 396 kts | 237° |
| 2026-05-04 00:36 | 26.30300 | -79.94215 | 34010 ft | 397 kts | 236° |
| 2026-05-04 00:36 | 26.27079 | -79.99229 | 34014 ft | 398 kts | 236° |
| 2026-05-04 00:37 | 26.23637 | -80.04086 | 33678 ft | 404 kts | 225° |
| 2026-05-04 00:37 | 26.21324 | -80.05922 | 33317 ft | 413 kts | 213° |
| 2026-05-04 00:37 | 26.18667 | -80.07131 | 32970 ft | 426 kts | 202° |
| 2026-05-04 00:37 | 26.15695 | -80.07702 | 32608 ft | 440 kts | 191° |
| 2026-05-04 00:38 | 26.12628 | -80.07664 | 32261 ft | 448 kts | 186° |
| 2026-05-04 00:38 | 26.09505 | -80.07577 | 31837 ft | 449 kts | 186° |
| 2026-05-04 00:38 | 26.06372 | -80.07503 | 31423 ft | 450 kts | 186° |
| 2026-05-04 00:38 | 26.03271 | -80.07555 | 30939 ft | 441 kts | 193° |
| 2026-05-04 00:39 | 26.00239 | -80.08020 | 30364 ft | 435 kts | 197° |
| 2026-05-04 00:39 | 25.97294 | -80.08619 | 30033 ft | 423 kts | 199° |
| 2026-05-04 00:39 | 25.94573 | -80.09564 | 29872 ft | 398 kts | 211° |
| 2026-05-04 00:39 | 25.92261 | -80.11078 | 29736 ft | 376 kts | 220° |
| 2026-05-04 00:40 | 25.90216 | -80.12730 | 29596 ft | 361 kts | 223° |
| 2026-05-04 00:40 | 25.88366 | -80.14554 | 29215 ft | 349 kts | 232° |
| 2026-05-04 00:40 | 25.87053 | -80.16787 | 28643 ft | 345 kts | 248° |
| 2026-05-04 00:40 | 25.86465 | -80.19356 | 28088 ft | 346 kts | 264° |
| 2026-05-04 00:41 | 25.86660 | -80.22035 | 27535 ft | 351 kts | 280° |
| 2026-05-04 00:41 | 25.87417 | -80.24628 | 26995 ft | 352 kts | 284° |
| 2026-05-04 00:41 | 25.88219 | -80.27186 | 26459 ft | 351 kts | 284° |
| 2026-05-04 00:41 | 25.89010 | -80.29714 | 25945 ft | 350 kts | 284° |
| 2026-05-04 00:42 | 25.89891 | -80.32237 | 25432 ft | 350 kts | 287° |
| 2026-05-04 00:42 | 25.90792 | -80.34758 | 24825 ft | 350 kts | 286° |
| 2026-05-04 00:42 | 25.91670 | -80.37273 | 24142 ft | 348 kts | 286° |
| 2026-05-04 00:42 | 25.92527 | -80.39744 | 23470 ft | 345 kts | 286° |
| 2026-05-04 00:43 | 25.93364 | -80.42274 | 22661 ft | 339 kts | 280° |
| 2026-05-04 00:43 | 25.93627 | -80.44798 | 21918 ft | 330 kts | 268° |
| 2026-05-04 00:43 | 25.93599 | -80.47331 | 21169 ft | 327 kts | 264° |
| 2026-05-04 00:43 | 25.93480 | -80.49852 | 20445 ft | 325 kts | 265° |
| 2026-05-04 00:44 | 25.93364 | -80.52359 | 19736 ft | 323 kts | 265° |
| 2026-05-04 00:44 | 25.93248 | -80.54847 | 19043 ft | 322 kts | 265° |
| 2026-05-04 00:44 | 25.93132 | -80.57324 | 18372 ft | 321 kts | 265° |
| 2026-05-04 00:44 | 25.93017 | -80.59733 | 17587 ft | 320 kts | 265° |
| 2026-05-04 00:45 | 25.92889 | -80.62280 | 16682 ft | 323 kts | 265° |
| 2026-05-04 00:45 | 25.92996 | -80.64777 | 15822 ft | 328 kts | 281° |
| 2026-05-04 00:45 | 25.93896 | -80.67122 | 14993 ft | 335 kts | 299° |
| 2026-05-04 00:45 | 25.95206 | -80.69272 | 14186 ft | 337 kts | 300° |
| 2026-05-04 00:46 | 25.96515 | -80.71439 | 13336 ft | 338 kts | 300° |
| 2026-05-04 00:46 | 25.97815 | -80.73611 | 12456 ft | 338 kts | 300° |
| 2026-05-04 00:46 | 25.99093 | -80.75761 | 11610 ft | 338 kts | 300° |
| 2026-05-04 00:46 | 26.00405 | -80.77934 | 10777 ft | 339 kts | 306° |
| 2026-05-04 00:47 | 26.02219 | -80.79640 | 10280 ft | 336 kts | 328° |
| 2026-05-04 00:47 | 26.04378 | -80.80382 | 10072 ft | 326 kts | 351° |
| 2026-05-04 00:47 | 26.06581 | -80.80119 | 10005 ft | 314 kts | 15° |
| 2026-05-04 00:47 | 26.08498 | -80.78883 | 10003 ft | 328 kts | 40° |
| 2026-05-04 00:48 | 26.09873 | -80.76864 | 9993 ft | 329 kts | 64° |
| 2026-05-04 00:48 | 26.10428 | -80.74457 | 9997 ft | 318 kts | 89° |
| 2026-05-04 00:48 | 26.10392 | -80.71994 | 9998 ft | 320 kts | 93° |
| 2026-05-04 00:48 | 26.10075 | -80.69559 | 10002 ft | 316 kts | 113° |
| 2026-05-04 00:49 | 26.09034 | -80.67487 | 10001 ft | 313 kts | 129° |
| 2026-05-04 00:49 | 26.07759 | -80.65494 | 10000 ft | 311 kts | 129° |
| 2026-05-04 00:49 | 26.06558 | -80.63627 | 10000 ft | 312 kts | 129° |
| 2026-05-04 00:49 | 26.05093 | -80.61939 | 10003 ft | 304 kts | 150° |
| 2026-05-04 00:50 | 26.03307 | -80.60691 | 9926 ft | 304 kts | 153° |
| 2026-05-04 00:50 | 26.01525 | -80.59485 | 9628 ft | 303 kts | 153° |
| 2026-05-04 00:50 | 25.99709 | -80.58295 | 9098 ft | 301 kts | 159° |
| 2026-05-04 00:50 | 25.97754 | -80.57562 | 8497 ft | 297 kts | 162° |
| 2026-05-04 00:51 | 25.95892 | -80.56540 | 7911 ft | 298 kts | 156° |
| 2026-05-04 00:51 | 25.94077 | -80.55488 | 7345 ft | 296 kts | 156° |
| 2026-05-04 00:51 | 25.92246 | -80.54436 | 6778 ft | 295 kts | 156° |
| 2026-05-04 00:51 | 25.90559 | -80.53131 | 6194 ft | 298 kts | 135° |
| 2026-05-04 00:52 | 25.89491 | -80.51196 | 5601 ft | 289 kts | 110° |
| 2026-05-04 00:52 | 25.88802 | -80.49141 | 5172 ft | 284 kts | 115° |
| 2026-05-04 00:52 | 25.88287 | -80.47857 | 4874 ft | 285 kts | 116° |
| 2026-05-04 00:52 | 25.87499 | -80.45845 | 4359 ft | 281 kts | 113° |
| 2026-05-04 00:53 | 25.86726 | -80.43896 | 3846 ft | 269 kts | 117° |
| 2026-05-04 00:53 | 25.85947 | -80.42102 | 3405 ft | 248 kts | 118° |
| 2026-05-04 00:53 | 25.85150 | -80.40491 | 3094 ft | 234 kts | 119° |
| 2026-05-04 00:53 | 25.84391 | -80.38906 | 3001 ft | 223 kts | 119° |
| 2026-05-04 00:54 | 25.83679 | -80.37411 | 3004 ft | 219 kts | 119° |
| 2026-05-04 00:54 | 25.82953 | -80.35912 | 2726 ft | 220 kts | 120° |
| 2026-05-04 00:54 | 25.82209 | -80.34456 | 2059 ft | 221 kts | 121° |
| 2026-05-04 00:54 | 25.81413 | -80.32961 | 1202 ft | 227 kts | 120° |
| 2026-05-04 00:55 | 25.80618 | -80.31463 | 501 ft | 217 kts | 120° |
| 2026-05-04 00:55 | 25.79886 | -80.30109 | 92 ft | 194 kts | 120° |
| 2026-05-04 00:55 | 25.79284 | -80.28966 | 15 ft | 163 kts | 119° |
| 2026-05-04 00:55 | 25.78804 | -80.28077 | 19 ft | 73 kts | 121° |
| 2026-05-04 00:56 | 25.78710 | -80.27889 | 17 ft | 17 kts | 110° |
| 2026-05-04 00:56 | 25.78666 | -80.27756 | 20 ft | 20 kts | 106° |
| 2026-05-04 00:56 | 25.78695 | -80.27610 | 17 ft | 21 kts | 56° |
| 2026-05-04 00:56 | 25.78756 | -80.27551 | 17 ft | 6 kts | 9° |
| 2026-05-04 00:57 | 25.78813 | -80.27551 | 18 ft | 10 kts | 358° |
| 2026-05-04 00:57 | 25.78887 | -80.27545 | 19 ft | 11 kts | 24° |
| 2026-05-04 00:57 | 25.78958 | -80.27509 | 18 ft | 12 kts | 0° |
| 2026-05-04 00:57 | 25.79040 | -80.27520 | 17 ft | 10 kts | 330° |
| 2026-05-04 00:58 | 25.79073 | -80.27582 | 18 ft | 8 kts | 287° |
| 2026-05-04 00:58 | 25.79075 | -80.27599 | 20 ft | 3 kts | 274° |
| 2026-05-04 00:58 | 25.79075 | -80.27609 | 18 ft | 0 kts | 270° |